»·PEaware :: N799DS KRAL-KTRM

N799DS :: KRAL-KTRM

FLIGHT INFORMATION

Flight Status: Arrived
Operator: Privately registered:
United States
More flights under this callsign
Pilot: Wolfgang B. (15069)
Aircraft: CESSNA 172 SKYHAWK
(C172)
More flights by this aircraft type
Origin: KRAL Riverside Mun
United States
Destination: KTRM Desert Resorts Regl
United States
More flights between these airports :: More routes between these airports
Route: +PDZ V186 NIKKL V64 TRM
File this flight plan on PilotEdge
Remarks:
Altitude:
(Current/Filed)
10,000ft
Speed:
(Current/Filed)
115kts
Departed: 22-Apr-17 10:44 AM
Arrived: 22-Apr-17 11:41 AM
Distance/Time
Traveled:
66nm/0:57
Distance/Time
To Go:
Arrived

Flight Plot

Page will automatically refresh every two minutes.

Flight plan parsing failed; only flown route is shown


Map Options




Map Legend


Flown Route
Filed Route
Departure Airport
Arrival Airport
Navaid (VOR, NDB)
Fix

Horizontal Profiles

Position Reports

Time Latitude Longitude Heading Altitude Ground
Speed
22-Apr-17 10:16 33.951048 -117.446147 104 769ft 0kts
22-Apr-17 10:17 33.951048 -117.446147 104 769ft 0kts
22-Apr-17 10:18 33.951048 -117.446147 104 769ft 0kts
22-Apr-17 10:19 33.951048 -117.446147 104 769ft 0kts
22-Apr-17 10:20 33.951048 -117.446147 104 769ft 0kts
22-Apr-17 10:21 33.951048 -117.446147 104 769ft 0kts
22-Apr-17 10:22 33.951048 -117.446147 104 769ft 0kts
22-Apr-17 10:23 33.951048 -117.446147 104 769ft 0kts
22-Apr-17 10:24 33.951048 -117.446147 104 769ft 0kts
22-Apr-17 10:25 33.951048 -117.446147 104 769ft 0kts
22-Apr-17 10:26 33.951048 -117.446147 104 769ft 0kts
22-Apr-17 10:27 33.951048 -117.446147 104 769ft 0kts
22-Apr-17 10:28 33.951048 -117.446147 104 769ft 0kts
22-Apr-17 10:29 33.951048 -117.446147 104 769ft 0kts
22-Apr-17 10:30 33.951048 -117.446147 104 769ft 0kts
22-Apr-17 10:31 33.951048 -117.446147 104 769ft 0kts
22-Apr-17 10:32 33.951048 -117.446147 104 769ft 0kts
22-Apr-17 10:33 33.951048 -117.446147 104 769ft 0kts
22-Apr-17 10:34 33.951048 -117.446147 104 769ft 0kts
22-Apr-17 10:35 33.951048 -117.446147 104 769ft 0kts
22-Apr-17 10:36 33.951048 -117.446147 104 769ft 0kts
22-Apr-17 10:37 33.951048 -117.446147 104 769ft 0kts
22-Apr-17 10:38 33.951048 -117.446147 104 769ft 0kts
22-Apr-17 10:39 33.951697 -117.446298 313 770ft 7kts
22-Apr-17 10:40 33.951699 -117.444532 103 778ft 10kts
22-Apr-17 10:41 33.950888 -117.440310 102 798ft 14kts
22-Apr-17 10:42 33.949929 -117.435308 96 813ft 7kts
22-Apr-17 10:43 33.949929 -117.435073 70 814ft 0kts
22-Apr-17 10:44 33.949929 -117.435073 70 814ft 0kts
22-Apr-17 10:45 33.949977 -117.434967 49 814ft 4kts
22-Apr-17 10:46 33.952551 -117.443952 286 933ft 81kts
22-Apr-17 10:47 33.955804 -117.468775 275 1870ft 76kts
22-Apr-17 10:48 33.949803 -117.490865 218 2711ft 79kts
22-Apr-17 10:49 33.933596 -117.508983 223 3505ft 81kts
22-Apr-17 10:50 33.915750 -117.525206 170 4133ft 98kts
22-Apr-17 10:51 33.889705 -117.502269 143 3965ft 116kts
22-Apr-17 10:52 33.865117 -117.478993 149 4267ft 99kts
22-Apr-17 10:53 33.845333 -117.463673 156 5135ft 79kts
22-Apr-17 10:54 33.826017 -117.451071 147 5814ft 79kts
22-Apr-17 10:55 33.807666 -117.436302 151 6449ft 81kts
22-Apr-17 10:56 33.788706 -117.422500 149 7072ft 80kts
22-Apr-17 10:57 33.769764 -117.408631 148 7694ft 80kts
22-Apr-17 10:58 33.752000 -117.394706 146 8250ft 82kts
22-Apr-17 10:59 33.732147 -117.381933 138 8799ft 84kts
22-Apr-17 11:00 33.728295 -117.354832 95 9374ft 82kts
22-Apr-17 11:01 33.725429 -117.327086 95 9859ft 84kts
22-Apr-17 11:02 33.723258 -117.298679 87 10300ft 90kts
22-Apr-17 11:03 33.722364 -117.269226 91 10725ft 93kts
22-Apr-17 11:04 33.720452 -117.237962 92 11034ft 106kts
22-Apr-17 11:05 33.717526 -117.198927 93 11025ft 123kts
22-Apr-17 11:06 33.714238 -117.157824 93 11023ft 126kts
22-Apr-17 11:07 33.710839 -117.116010 94 11023ft 126kts
22-Apr-17 11:08 33.707393 -117.073923 94 11020ft 127kts
22-Apr-17 11:09 33.703961 -117.032170 94 11017ft 128kts
22-Apr-17 11:10 33.700461 -116.989906 94 11013ft 128kts
22-Apr-17 11:11 33.696867 -116.947022 94 11010ft 129kts
22-Apr-17 11:12 33.693285 -116.903862 94 11007ft 130kts
22-Apr-17 11:13 33.689677 -116.860765 95 11005ft 130kts
22-Apr-17 11:14 33.686012 -116.817314 95 11005ft 130kts
22-Apr-17 11:15 33.682361 -116.774099 95 11005ft 130kts
22-Apr-17 11:16 33.678538 -116.730615 95 11005ft 130kts
22-Apr-17 11:17 33.674630 -116.687334 95 10995ft 129kts
22-Apr-17 11:18 33.671007 -116.645287 95 10996ft 126kts
22-Apr-17 11:19 33.667431 -116.603723 95 10993ft 125kts
22-Apr-17 11:20 33.663829 -116.561994 95 10988ft 125kts
22-Apr-17 11:21 33.660237 -116.520476 95 10983ft 125kts
22-Apr-17 11:22 33.656606 -116.478701 95 10977ft 125kts
22-Apr-17 11:23 33.652963 -116.436948 95 10971ft 126kts
22-Apr-17 11:24 33.649307 -116.395276 95 10957ft 122kts
22-Apr-17 11:25 33.645973 -116.353986 95 10010ft 122kts
22-Apr-17 11:26 33.640936 -116.315110 98 8944ft 122kts
22-Apr-17 11:27 33.636733 -116.275470 93 7905ft 119kts
22-Apr-17 11:28 33.633584 -116.236678 95 6890ft 116kts
22-Apr-17 11:29 33.630731 -116.199055 94 5902ft 114kts
22-Apr-17 11:30 33.628176 -116.162051 94 5046ft 104kts
22-Apr-17 11:31 33.623281 -116.126485 131 4921ft 108kts
22-Apr-17 11:32 33.597498 -116.105915 137 4258ft 111kts
22-Apr-17 11:33 33.569995 -116.089900 163 3651ft 109kts
22-Apr-17 11:33 33.549299 -116.074524 107 3180ft 112kts
22-Apr-17 11:34 33.548278 -116.036275 92 3100ft 119kts
22-Apr-17 11:35 33.527954 -116.016371 220 2835ft 127kts
22-Apr-17 11:36 33.526913 -116.054832 296 2598ft 118kts
22-Apr-17 11:37 33.551618 -116.079063 324 1834ft 113kts
22-Apr-17 11:39 33.577034 -116.106645 314 1009ft 99kts
22-Apr-17 11:39 33.592801 -116.126089 315 588ft 97kts
22-Apr-17 11:40 33.610430 -116.147431 311 142ft 68kts
22-Apr-17 11:41 33.622041 -116.161292 315 -114ft 48kts
22-Apr-17 11:42 33.627574 -116.167825 339 -108ft 1kts
22-Apr-17 11:43 33.629224 -116.168719 316 -107ft 11kts
22-Apr-17 11:44 33.631926 -116.170892 358 -103ft 18kts
22-Apr-17 11:45 33.634140 -116.167478 84 -104ft 17kts
22-Apr-17 11:46 33.635111 -116.167294 353 -104ft 0kts

Navigation Log

Ident Type
Flight plan parsing failed, navigation log unavailable